createdAt,value
2018-11-05T00:02:24.821Z,15.40
2018-11-05T00:04:53.169Z,15.03
2018-11-05T00:07:27.863Z,14.97
2018-11-05T00:09:56.143Z,16.07
2018-11-05T00:12:24.445Z,14.77
2018-11-05T00:14:52.760Z,14.73
2018-11-05T00:17:21.056Z,14.80
2018-11-05T00:19:49.378Z,14.93
2018-11-05T00:22:17.688Z,15.13
2018-11-05T00:24:46.011Z,15.37
2018-11-05T00:27:14.314Z,16.10
2018-11-05T00:29:42.646Z,15.67
2018-11-05T00:32:10.948Z,16.17
2018-11-05T00:34:39.298Z,17.23
2018-11-05T00:37:07.584Z,16.97
2018-11-05T00:39:35.907Z,18.07
2018-11-05T00:42:04.230Z,17.17
2018-11-05T00:44:32.558Z,18.23
2018-11-05T00:47:00.866Z,17.90
2018-11-05T00:49:29.405Z,18.23
2018-11-05T00:51:58.074Z,18.57
2018-11-05T00:54:26.392Z,18.90
2018-11-05T00:56:54.783Z,17.83
2018-11-05T00:59:23.148Z,19.50
2018-11-05T01:01:51.471Z,19.60
2018-11-05T01:04:19.791Z,19.17
2018-11-05T01:06:48.121Z,19.80
2018-11-05T01:09:16.458Z,18.97
2018-11-05T01:11:44.816Z,20.83
2018-11-05T01:14:13.137Z,19.00
2018-11-05T01:16:41.485Z,20.23
2018-11-05T01:19:09.795Z,19.53
2018-11-05T01:21:38.123Z,19.87
2018-11-05T01:24:06.429Z,20.23
2018-11-05T01:26:34.799Z,19.90
2018-11-05T01:29:03.121Z,19.87
2018-11-05T01:31:31.467Z,20.03
2018-11-05T01:33:59.819Z,19.43
2018-11-05T01:36:28.158Z,21.30
2018-11-05T01:38:56.547Z,20.73
2018-11-05T01:41:24.944Z,19.30
2018-11-05T01:43:53.269Z,19.57
2018-11-05T01:46:21.595Z,20.77
2018-11-05T01:48:49.947Z,20.03
2018-11-05T01:51:25.060Z,20.17
2018-11-05T01:53:53.344Z,20.57
2018-11-05T01:56:21.701Z,21.70
2018-11-05T01:58:49.996Z,20.73
2018-11-05T02:01:18.327Z,20.33
2018-11-05T02:03:46.622Z,20.53
2018-11-05T02:06:14.939Z,20.80
2018-11-05T02:08:43.305Z,20.33
2018-11-05T02:11:11.632Z,21.03
2018-11-05T02:13:39.935Z,21.23
2018-11-05T02:16:08.271Z,22.27
2018-11-05T02:18:36.534Z,21.30
2018-11-05T02:21:05.005Z,20.97
2018-11-05T02:23:33.300Z,22.57
2018-11-05T02:26:01.623Z,21.47
2018-11-05T02:28:30.027Z,20.47
2018-11-05T02:30:58.355Z,22.20
2018-11-05T02:33:26.683Z,23.33
2018-11-05T02:35:54.996Z,23.37
2018-11-05T02:38:23.327Z,23.60
2018-11-05T02:40:51.707Z,22.97
2018-11-05T02:43:20.096Z,22.77
2018-11-05T02:45:48.392Z,23.83
2018-11-05T02:48:16.713Z,23.37
2018-11-05T02:50:45.038Z,23.67
2018-11-05T02:53:13.416Z,24.00
2018-11-05T02:55:41.733Z,23.80
2018-11-05T02:58:10.082Z,23.97
2018-11-05T03:00:38.402Z,24.07
2018-11-05T03:03:06.764Z,23.87
2018-11-05T03:05:35.076Z,23.43
2018-11-05T03:08:03.415Z,23.63
2018-11-05T03:10:31.747Z,22.60
2018-11-05T03:13:00.079Z,21.87
2018-11-05T03:15:28.419Z,21.97
2018-11-05T03:17:56.759Z,22.13
2018-11-05T03:20:25.098Z,21.03
2018-11-05T03:22:53.450Z,21.40
2018-11-05T03:25:21.767Z,20.93
2018-11-05T03:27:50.206Z,20.60
2018-11-05T03:30:19.478Z,21.20
2018-11-05T03:32:48.085Z,19.73
2018-11-05T03:35:16.577Z,21.17
2018-11-05T03:37:45.971Z,19.87
2018-11-05T03:40:14.634Z,20.10
2018-11-05T03:42:43.336Z,20.53
2018-11-05T03:45:13.130Z,18.93
2018-11-05T03:47:42.707Z,19.77
2018-11-05T03:50:12.898Z,20.97
2018-11-05T03:52:41.512Z,20.47
2018-11-05T03:55:10.065Z,20.17
2018-11-05T03:57:38.495Z,19.73
2018-11-05T04:00:08.031Z,20.27
2018-11-05T04:02:36.487Z,20.83
2018-11-05T04:05:05.402Z,19.60
2018-11-05T04:07:33.762Z,21.23
2018-11-05T04:10:02.095Z,21.07
2018-11-05T04:12:30.420Z,20.50
2018-11-05T04:14:58.784Z,20.63
2018-11-05T04:17:27.226Z,20.87
2018-11-05T04:19:55.547Z,21.03
2018-11-05T04:22:23.849Z,20.33
2018-11-05T04:24:52.186Z,21.87
2018-11-05T04:27:20.512Z,21.73
2018-11-05T04:29:48.847Z,21.10
2018-11-05T04:32:17.195Z,21.27
2018-11-05T04:34:45.551Z,20.57
2018-11-05T04:37:13.876Z,20.70
2018-11-05T04:39:42.223Z,20.73
2018-11-05T04:42:10.551Z,20.50
2018-11-05T04:44:38.894Z,22.67
2018-11-05T04:47:07.233Z,20.57
2018-11-05T04:49:35.598Z,20.77
2018-11-05T04:52:03.906Z,20.83
2018-11-05T04:54:32.284Z,21.00
2018-11-05T04:57:00.603Z,21.23
2018-11-05T04:59:29.039Z,21.97
2018-11-05T05:01:57.371Z,22.20
2018-11-05T05:04:25.735Z,22.10
2018-11-05T05:06:54.158Z,22.43
2018-11-05T05:09:22.554Z,21.67
2018-11-05T05:11:50.870Z,22.03
2018-11-05T05:14:19.186Z,23.10
2018-11-05T05:16:47.522Z,23.63
2018-11-05T05:19:15.862Z,21.67
2018-11-05T05:21:44.211Z,22.33
2018-11-05T05:24:12.795Z,22.30
2018-11-05T05:26:41.160Z,21.73
2018-11-05T05:29:09.683Z,22.40
2018-11-05T05:31:38.011Z,21.57
2018-11-05T05:34:06.600Z,23.10
2018-11-05T05:36:34.963Z,23.23
2018-11-05T05:39:04.799Z,24.03
2018-11-05T05:41:33.195Z,23.63
2018-11-05T05:44:01.522Z,23.27
2018-11-05T05:46:29.858Z,23.60
2018-11-05T05:48:58.183Z,23.70
2018-11-05T05:51:26.495Z,24.73
2018-11-05T05:53:54.874Z,23.23
2018-11-05T05:56:23.212Z,24.07
2018-11-05T05:58:51.538Z,24.77
2018-11-05T06:01:19.864Z,23.00
2018-11-05T06:03:48.217Z,23.47
2018-11-05T06:06:16.680Z,23.53
2018-11-05T06:08:44.895Z,23.93
2018-11-05T06:11:13.215Z,23.13
2018-11-05T06:13:41.526Z,24.10
2018-11-05T06:16:10.038Z,24.23
2018-11-05T06:18:38.419Z,24.07
2018-11-05T06:21:06.755Z,24.27
2018-11-05T06:23:35.083Z,23.83
2018-11-05T06:26:03.434Z,25.67
2018-11-05T06:28:31.846Z,23.90
2018-11-05T06:31:00.141Z,23.80
2018-11-05T06:33:28.501Z,23.97
2018-11-05T06:35:56.848Z,24.67
2018-11-05T06:38:25.167Z,23.83
2018-11-05T06:40:53.466Z,23.67
2018-11-05T06:43:21.786Z,23.10
2018-11-05T06:45:50.116Z,23.23
2018-11-05T06:48:18.447Z,23.67
2018-11-05T06:50:46.795Z,24.43
2018-11-05T06:53:15.107Z,24.93
2018-11-05T06:55:43.484Z,24.13
2018-11-05T06:58:11.827Z,22.77
2018-11-05T07:00:40.168Z,23.37
2018-11-05T07:03:08.522Z,22.40
2018-11-05T07:05:37.119Z,23.10
2018-11-05T07:08:05.548Z,22.63
2018-11-05T07:10:33.886Z,21.50
2018-11-05T07:13:02.211Z,22.87
2018-11-05T07:15:30.542Z,23.50
2018-11-05T07:17:58.853Z,22.90
2018-11-05T07:20:27.179Z,23.37
2018-11-05T07:22:55.511Z,23.83
2018-11-05T07:25:23.864Z,23.73
2018-11-05T07:27:52.340Z,22.93
2018-11-05T07:30:21.889Z,22.27
2018-11-05T07:32:51.384Z,21.83
2018-11-05T07:35:19.763Z,21.83
2018-11-05T07:37:48.069Z,22.73
2018-11-05T07:40:17.330Z,22.27
2018-11-05T07:42:45.667Z,23.23
2018-11-05T07:45:24.081Z,22.90
2018-11-05T07:47:52.514Z,24.30
2018-11-05T07:50:21.773Z,22.53
2018-11-05T07:52:50.555Z,22.50
2018-11-05T07:55:19.492Z,24.13
2018-11-05T07:57:48.767Z,24.47
2018-11-05T08:00:22.620Z,23.87
2018-11-05T08:02:55.611Z,24.90
2018-11-05T08:05:24.422Z,25.20
2018-11-05T08:07:52.836Z,24.17
2018-11-05T08:10:21.226Z,23.70
2018-11-05T08:12:49.573Z,25.03
2018-11-05T08:15:19.373Z,24.13
2018-11-05T08:17:48.894Z,24.60
2018-11-05T08:20:17.263Z,25.47
2018-11-05T08:22:45.602Z,24.90
2018-11-05T08:25:14.743Z,24.90
2018-11-05T08:27:43.078Z,24.53
2018-11-05T08:30:18.375Z,24.33
2018-11-05T08:32:46.691Z,24.53
2018-11-05T08:35:15.325Z,25.53
2018-11-05T08:37:44.815Z,25.20
2018-11-05T08:40:16.237Z,25.57
2018-11-05T08:42:45.288Z,25.03
2018-11-05T08:45:15.061Z,25.60
2018-11-05T08:47:43.685Z,23.70
2018-11-05T08:50:14.426Z,25.30
2018-11-05T08:52:42.724Z,24.07
2018-11-05T08:55:13.395Z,25.47
2018-11-05T08:57:42.353Z,24.30
2018-11-05T09:00:19.873Z,24.07
2018-11-05T09:02:48.323Z,24.30
2018-11-05T09:05:16.751Z,23.03
2018-11-05T09:07:45.670Z,23.97
2018-11-05T09:10:14.232Z,25.47
2018-11-05T09:12:42.927Z,24.03
2018-11-05T09:15:12.911Z,23.43
2018-11-05T09:17:42.663Z,22.17
2018-11-05T09:20:12.405Z,24.07
2018-11-05T09:22:40.870Z,22.80
2018-11-05T09:25:10.245Z,23.27
2018-11-05T09:27:38.618Z,23.83
2018-11-05T09:30:12.261Z,23.03
2018-11-05T09:32:40.699Z,23.27
2018-11-05T09:35:09.304Z,22.43
2018-11-05T09:37:37.644Z,23.30
2018-11-05T09:40:08.076Z,23.07
2018-11-05T09:42:36.420Z,21.60
2018-11-05T09:45:05.402Z,24.60
2018-11-05T09:47:33.747Z,23.33
2018-11-05T09:50:02.082Z,22.23
2018-11-05T09:52:30.486Z,23.30
2018-11-05T09:54:58.845Z,23.73
2018-11-05T09:57:27.362Z,22.07
2018-11-05T09:59:55.683Z,23.07
2018-11-05T10:02:24.050Z,21.83
2018-11-05T10:04:52.603Z,23.00
2018-11-05T10:07:20.761Z,22.60
2018-11-05T10:09:49.120Z,22.70
2018-11-05T10:12:17.459Z,23.17
2018-11-05T10:14:45.840Z,23.07
2018-11-05T10:17:14.253Z,22.40
2018-11-05T10:19:42.604Z,21.70
2018-11-05T10:22:10.974Z,22.13
2018-11-05T10:24:39.353Z,22.57
2018-11-05T10:27:07.663Z,22.10
2018-11-05T10:29:36.028Z,23.80
2018-11-05T10:32:04.414Z,22.43
2018-11-05T10:34:32.751Z,22.27
2018-11-05T10:37:01.112Z,24.33
2018-11-05T10:39:29.460Z,22.03
2018-11-05T10:41:57.797Z,22.60
2018-11-05T10:44:26.220Z,22.97
2018-11-05T10:46:54.688Z,22.70
2018-11-05T10:49:23.062Z,23.20
2018-11-05T10:51:51.461Z,21.87
2018-11-05T10:54:19.753Z,22.13
2018-11-05T10:56:48.133Z,22.90
2018-11-05T10:59:16.432Z,23.03
2018-11-05T11:01:51.165Z,21.47
2018-11-05T11:04:24.812Z,22.83
2018-11-05T11:06:53.151Z,22.47
2018-11-05T11:09:21.515Z,22.30
2018-11-05T11:11:49.851Z,22.13
2018-11-05T11:14:18.231Z,21.73
2018-11-05T11:16:46.659Z,23.60
2018-11-05T11:19:15.017Z,22.13
2018-11-05T11:21:43.428Z,22.83
2018-11-05T11:24:11.813Z,22.43
2018-11-05T11:26:40.329Z,23.07
2018-11-05T11:29:08.864Z,22.70
2018-11-05T11:31:37.152Z,23.43
2018-11-05T11:34:05.760Z,22.23
2018-11-05T11:36:34.101Z,23.13
2018-11-05T11:39:02.422Z,23.57
2018-11-05T11:41:30.743Z,22.93
2018-11-05T11:43:59.164Z,22.97
2018-11-05T11:46:27.430Z,24.23
2018-11-05T11:48:55.772Z,24.33
2018-11-05T11:51:24.189Z,24.47
2018-11-05T11:53:52.659Z,21.80
2018-11-05T11:56:20.998Z,24.37
2018-11-05T11:58:49.337Z,24.47
2018-11-05T12:01:17.693Z,22.57
2018-11-05T12:03:46.082Z,22.47
2018-11-05T12:06:14.448Z,22.43
2018-11-05T12:08:42.804Z,22.40
2018-11-05T12:11:11.139Z,21.63
2018-11-05T12:13:39.563Z,23.07
2018-11-05T12:16:07.940Z,21.40
2018-11-05T12:18:36.259Z,22.13
2018-11-05T12:21:04.704Z,24.00
2018-11-05T12:23:33.039Z,21.53
2018-11-05T12:26:01.391Z,21.17
2018-11-05T12:28:29.743Z,21.10
2018-11-05T12:30:58.091Z,22.30
2018-11-05T12:33:26.411Z,21.43
2018-11-05T12:35:54.781Z,21.93
2018-11-05T12:38:23.135Z,22.93
2018-11-05T12:40:51.651Z,21.83
2018-11-05T12:43:20.033Z,21.97
2018-11-05T12:45:48.387Z,20.43
2018-11-05T12:48:16.834Z,20.40
2018-11-05T12:50:45.251Z,21.83
2018-11-05T12:53:13.538Z,21.03
2018-11-05T12:55:41.934Z,21.27
2018-11-05T12:58:10.273Z,21.67
2018-11-05T13:00:38.639Z,23.43
2018-11-05T13:03:06.971Z,22.23
2018-11-05T13:05:35.330Z,23.80
2018-11-05T13:08:03.619Z,22.93
2018-11-05T13:10:31.958Z,23.47
2018-11-05T13:13:00.318Z,24.40
2018-11-05T13:15:28.864Z,24.97
2018-11-05T13:17:56.974Z,23.73
2018-11-05T13:20:25.406Z,24.43
2018-11-05T13:22:53.723Z,25.07
2018-11-05T13:25:22.087Z,25.97
2018-11-05T13:27:51.299Z,24.33
2018-11-05T13:30:19.767Z,25.43
2018-11-05T13:32:48.235Z,25.93
2018-11-05T13:35:18.497Z,26.30
2018-11-05T13:37:47.199Z,26.40
2018-11-05T13:40:17.639Z,26.20
2018-11-05T13:42:46.568Z,25.47
2018-11-05T13:45:15.544Z,26.50
2018-11-05T13:47:44.273Z,25.60
2018-11-05T13:50:12.839Z,26.13
2018-11-05T13:52:41.468Z,27.83
2018-11-05T13:55:11.760Z,27.47
2018-11-05T13:57:40.540Z,27.33
2018-11-05T14:00:10.603Z,27.83
2018-11-05T14:02:39.016Z,28.40
2018-11-05T14:05:07.703Z,28.03
2018-11-05T14:07:36.501Z,29.00
2018-11-05T14:10:06.583Z,29.10
2018-11-05T14:12:34.943Z,28.17
2018-11-05T14:15:03.327Z,28.67
2018-11-05T14:17:31.629Z,28.00
2018-11-05T14:19:59.971Z,28.27
2018-11-05T14:22:28.405Z,28.13
2018-11-05T14:24:56.722Z,29.17
2018-11-05T14:27:25.135Z,28.40
2018-11-05T14:29:53.716Z,29.63
2018-11-05T14:32:21.814Z,26.70
2018-11-05T14:34:50.090Z,28.83
2018-11-05T14:37:18.466Z,28.70
2018-11-05T14:39:46.860Z,29.13
2018-11-05T14:42:15.266Z,28.67
2018-11-05T14:44:43.614Z,28.20
2018-11-05T14:47:11.967Z,27.90
2018-11-05T14:49:40.311Z,27.37
2018-11-05T14:52:08.664Z,28.10
2018-11-05T14:54:37.030Z,28.57
2018-11-05T14:57:05.903Z,28.00
2018-11-05T14:59:34.319Z,28.73
2018-11-05T15:02:08.051Z,28.23
2018-11-05T15:04:36.370Z,30.23
2018-11-05T15:07:05.125Z,30.60
2018-11-05T15:09:33.490Z,30.90
2018-11-05T15:12:01.918Z,32.00
2018-11-05T15:14:30.270Z,30.50
2018-11-05T15:16:58.634Z,30.50
2018-11-05T15:19:27.603Z,31.60
2018-11-05T15:21:55.547Z,30.77
2018-11-05T15:24:23.910Z,31.83
2018-11-05T15:26:52.390Z,32.33
2018-11-05T15:29:20.594Z,31.80
2018-11-05T15:31:48.944Z,32.13
2018-11-05T15:34:17.279Z,32.40
2018-11-05T15:36:45.627Z,33.30
2018-11-05T15:39:14.077Z,33.37
2018-11-05T15:41:42.453Z,33.93
2018-11-05T15:44:10.939Z,35.97
2018-11-05T15:46:39.290Z,37.40
2018-11-05T15:49:07.632Z,39.53
2018-11-05T15:51:36.180Z,39.00
2018-11-05T15:54:04.398Z,39.50
2018-11-05T15:56:32.700Z,40.33
2018-11-05T15:59:01.047Z,39.70
2018-11-05T16:01:29.374Z,39.33
2018-11-05T16:03:57.713Z,39.60
2018-11-05T16:06:26.004Z,40.67
2018-11-05T16:08:54.330Z,38.83
2018-11-05T16:11:22.772Z,39.23
2018-11-05T16:13:51.126Z,37.47
2018-11-05T16:16:19.443Z,38.73
2018-11-05T16:18:47.785Z,38.47
2018-11-05T16:21:16.147Z,39.37
2018-11-05T16:23:44.465Z,38.00
2018-11-05T16:26:12.830Z,38.67
2018-11-05T16:28:41.324Z,39.43
2018-11-05T16:31:09.874Z,39.07
2018-11-05T16:33:38.195Z,39.77
2018-11-05T16:36:06.567Z,39.53
2018-11-05T16:38:34.938Z,39.70
2018-11-05T16:41:03.415Z,40.27
2018-11-05T16:43:31.736Z,41.97
2018-11-05T16:46:00.237Z,42.10
2018-11-05T16:48:28.571Z,41.77
2018-11-05T16:50:56.879Z,40.30
2018-11-05T16:53:25.162Z,41.67
2018-11-05T16:55:53.586Z,41.30
2018-11-05T16:58:21.900Z,42.17
2018-11-05T17:00:50.311Z,41.23
2018-11-05T17:03:18.624Z,41.23
2018-11-05T17:05:46.863Z,41.33
2018-11-05T17:08:15.179Z,41.00
2018-11-05T17:10:43.551Z,42.73
2018-11-05T17:13:11.934Z,42.07
2018-11-05T17:15:40.299Z,42.30
2018-11-05T17:18:08.623Z,43.20
2018-11-05T17:20:36.963Z,42.33
2018-11-05T17:23:05.474Z,41.57
2018-11-05T17:25:33.831Z,42.63
2018-11-05T17:28:02.275Z,42.60
2018-11-05T17:30:30.643Z,41.57
2018-11-05T17:32:58.989Z,43.10
2018-11-05T17:35:27.245Z,41.37
2018-11-05T17:37:55.588Z,41.77
2018-11-05T17:40:23.914Z,43.33
2018-11-05T17:42:52.395Z,41.93
2018-11-05T17:45:21.038Z,43.00
2018-11-05T17:47:49.621Z,44.10
2018-11-05T17:50:19.566Z,44.27
2018-11-05T17:52:47.953Z,44.53
2018-11-05T17:55:17.010Z,43.60
2018-11-05T17:57:46.722Z,45.73
2018-11-05T18:00:16.423Z,44.13
2018-11-05T18:02:44.686Z,44.17
2018-11-05T18:05:13.031Z,44.57
2018-11-05T18:07:41.518Z,46.27
2018-11-05T18:10:10.297Z,46.80
2018-11-05T18:12:38.547Z,46.23
2018-11-05T18:15:08.425Z,47.43
2018-11-05T18:17:36.970Z,48.03
2018-11-05T18:20:06.702Z,49.07
2018-11-05T18:22:34.904Z,49.50
2018-11-05T18:25:03.221Z,49.57
2018-11-05T18:27:31.556Z,49.83
2018-11-05T18:29:59.920Z,52.63
2018-11-05T18:32:28.142Z,50.70
2018-11-05T18:34:56.703Z,53.97
2018-11-05T18:37:25.371Z,49.80
2018-11-05T18:39:53.583Z,53.30
2018-11-05T18:42:21.806Z,53.07
2018-11-05T18:44:50.220Z,55.10
2018-11-05T18:47:18.889Z,55.03
2018-11-05T18:49:47.391Z,54.20
2018-11-05T18:52:15.755Z,53.50
2018-11-05T18:54:44.155Z,56.37
2018-11-05T18:57:12.530Z,54.50
2018-11-05T18:59:40.870Z,54.30
2018-11-05T19:02:09.203Z,55.87
2018-11-05T19:04:37.550Z,53.67
2018-11-05T19:07:05.912Z,55.13
2018-11-05T19:09:34.435Z,54.53
2018-11-05T19:12:02.679Z,54.67
2018-11-05T19:14:31.119Z,54.50
2018-11-05T19:16:59.443Z,56.27
2018-11-05T19:19:27.797Z,55.03
2018-11-05T19:21:56.168Z,56.00
2018-11-05T19:24:24.652Z,53.77
2018-11-05T19:26:52.845Z,53.43
2018-11-05T19:29:21.211Z,55.60
2018-11-05T19:31:49.539Z,52.97
2018-11-05T19:34:17.941Z,53.23
2018-11-05T19:36:46.263Z,53.87
2018-11-05T19:39:14.588Z,55.27
2018-11-05T19:41:43.049Z,54.20
2018-11-05T19:44:11.395Z,54.33
2018-11-05T19:46:40.087Z,51.90
2018-11-05T19:49:08.426Z,51.03
2018-11-05T19:51:36.785Z,51.53
2018-11-05T19:54:05.120Z,52.30
2018-11-05T19:56:33.540Z,48.67
2018-11-05T19:59:02.652Z,50.43
2018-11-05T20:01:31.123Z,50.17
2018-11-05T20:03:59.498Z,48.03
2018-11-05T20:06:27.842Z,49.90
2018-11-05T20:08:56.201Z,49.83
2018-11-05T20:11:24.587Z,50.47
2018-11-05T20:13:53.286Z,47.10
2018-11-05T20:16:21.741Z,48.63
2018-11-05T20:18:50.125Z,48.63
2018-11-05T20:21:18.831Z,48.97
2018-11-05T20:23:47.181Z,46.87
2018-11-05T20:26:15.555Z,48.17
2018-11-05T20:28:43.990Z,48.90
2018-11-05T20:31:12.440Z,48.47
2018-11-05T20:33:40.746Z,47.00
2018-11-05T20:36:08.999Z,46.30
2018-11-05T20:38:37.341Z,46.40
2018-11-05T20:41:05.883Z,45.80
2018-11-05T20:43:34.366Z,45.43
2018-11-05T20:46:02.698Z,42.70
2018-11-05T20:48:31.091Z,43.80
2018-11-05T20:50:59.389Z,46.33
2018-11-05T20:53:27.878Z,43.03
2018-11-05T20:55:56.255Z,43.53
2018-11-05T20:58:25.834Z,39.33
2018-11-05T21:00:54.502Z,36.97
2018-11-05T21:03:22.866Z,38.73
2018-11-05T21:05:52.015Z,40.27
2018-11-05T21:08:21.000Z,44.13
2018-11-05T21:10:49.463Z,39.00
2018-11-05T21:13:18.055Z,39.83
2018-11-05T21:15:46.692Z,39.20
2018-11-05T21:18:15.462Z,37.63
2018-11-05T21:20:44.337Z,35.90
2018-11-05T21:23:15.879Z,40.53
2018-11-05T21:25:45.779Z,38.40
2018-11-05T21:28:14.249Z,44.90
2018-11-05T21:30:42.643Z,45.60
2018-11-05T21:33:11.580Z,41.63
2018-11-05T21:35:40.531Z,41.47
2018-11-05T21:38:09.287Z,41.47
2018-11-05T21:40:38.078Z,38.20
2018-11-05T21:43:06.829Z,35.07
2018-11-05T21:45:35.612Z,34.63
2018-11-05T21:48:04.727Z,39.47
2018-11-05T21:50:33.415Z,43.47
2018-11-05T21:53:02.897Z,38.90
2018-11-05T21:55:31.320Z,37.50
2018-11-05T21:58:00.107Z,43.60
2018-11-05T22:00:28.514Z,35.70
2018-11-05T22:03:03.277Z,32.90
2018-11-05T22:05:31.581Z,35.57
2018-11-05T22:07:59.922Z,35.57
2018-11-05T22:10:28.267Z,37.83
2018-11-05T22:12:56.590Z,43.43
2018-11-05T22:15:29.310Z,32.67
2018-11-05T22:17:57.674Z,27.43
2018-11-05T22:20:26.037Z,30.90
2018-11-05T22:22:54.367Z,29.03
2018-11-05T22:25:22.727Z,29.00
2018-11-05T22:27:51.047Z,28.93
2018-11-05T22:30:19.416Z,30.60
2018-11-05T22:32:47.768Z,27.13
2018-11-05T22:35:16.123Z,26.23
2018-11-05T22:37:44.455Z,29.13
2018-11-05T22:40:14.048Z,24.13
2018-11-05T22:42:42.468Z,26.33
2018-11-05T22:45:12.360Z,26.17
2018-11-05T22:47:40.920Z,25.53
2018-11-05T22:50:09.686Z,24.17
2018-11-05T22:52:38.483Z,25.47
2018-11-05T22:55:07.084Z,24.40
2018-11-05T22:57:35.415Z,25.10
2018-11-05T23:00:04.206Z,26.10
2018-11-05T23:02:32.533Z,29.27
2018-11-05T23:05:00.863Z,28.57
2018-11-05T23:07:29.201Z,33.50
2018-11-05T23:09:57.626Z,31.37
2018-11-05T23:12:26.109Z,29.20
2018-11-05T23:14:54.419Z,27.00
2018-11-05T23:17:22.736Z,28.43
2018-11-05T23:19:52.100Z,30.23
2018-11-05T23:22:20.548Z,27.07
2018-11-05T23:24:48.866Z,30.30
2018-11-05T23:27:17.201Z,29.60
2018-11-05T23:29:45.551Z,29.70
2018-11-05T23:32:13.839Z,27.17
2018-11-05T23:34:42.177Z,29.27
2018-11-05T23:37:10.522Z,28.77
2018-11-05T23:39:38.849Z,27.23
2018-11-05T23:42:07.186Z,26.40
2018-11-05T23:44:35.464Z,25.70
2018-11-05T23:47:03.823Z,27.47
2018-11-05T23:49:32.182Z,27.00
2018-11-05T23:52:00.585Z,27.50
2018-11-05T23:54:28.887Z,25.17
2018-11-05T23:56:57.206Z,24.83
2018-11-05T23:59:25.555Z,25.47
